Guymon Municipal Airport Guymon US
ICAO: KGUY
IATA: GUY
Category: Medium
Scheduled Services: No

Elevation: 3123 ft
TransAlt. 18000 ft.

Airport Communications:
ASOS:119.925
KANSAS CITY CNTR:134
CTAF/UNICOM:122.7

KGUY Zoom In..

Runways:

(A) RW 18 length 5904 ft width 100 ft
---- / hdg 177

(B) RW 36 length 5904 ft width 100 ft
---- / hdg 357

Location; KGUY
Day. 20 / Time. 02.53 Zulu
* Altimeter: 29.93
* Temperature: 24° c. 75.2°f.
* Wind from: 190° Speed 05 kn.
Dewpoint: 14° c.
Visibility: 10 Statute Miles.
Clouds: Clear (automated report).

KGUY 200253Z AUTO 19005KT 10SM CLR 24/14 A2993 RMK AO2 SLP084 60000 T02440139 53004


Wind From 190°
Speed 05 kn.

 
 
jpsmedia.com for Web Design worldairports.se 2018   terms of use